createdAt,value
2022-09-05T00:00:12.998Z,2.97
2022-09-05T00:02:50.647Z,3.05
2022-09-05T00:05:25.431Z,3.30
2022-09-05T00:08:29.459Z,3.03
2022-09-05T00:11:39.623Z,3.30
2022-09-05T00:15:14.641Z,3.05
2022-09-05T00:17:21.625Z,2.50
2022-09-05T00:24:21.887Z,3.03
2022-09-05T00:24:45.631Z,2.60
2022-09-05T00:26:23.271Z,2.80
2022-09-05T00:29:01.953Z,2.78
2022-09-05T00:31:54.175Z,2.80
2022-09-05T00:34:47.519Z,2.83
2022-09-05T00:37:26.290Z,2.85
2022-09-05T00:40:03.948Z,3.00
2022-09-05T00:42:39.295Z,2.80
2022-09-05T00:45:19.550Z,2.60
2022-09-05T00:47:59.127Z,2.67
2022-09-05T00:50:30.674Z,2.72
2022-09-05T00:53:07.535Z,2.67
2022-09-05T00:55:50.275Z,2.75
2022-09-05T00:58:41.923Z,2.90
2022-09-05T01:01:44.427Z,2.65
2022-09-05T01:04:26.360Z,2.30
2022-09-05T01:07:34.949Z,2.70
2022-09-05T01:10:23.576Z,3.00
2022-09-05T01:13:00.960Z,2.90
2022-09-05T01:15:44.133Z,2.75
2022-09-05T01:18:17.693Z,2.70
2022-09-05T01:21:02.780Z,2.70
2022-09-05T01:23:40.026Z,2.75
2022-09-05T01:26:16.784Z,2.65
2022-09-05T01:29:15.862Z,2.70
2022-09-05T01:31:58.696Z,2.60
2022-09-05T01:34:48.948Z,2.72
2022-09-05T01:37:42.131Z,2.58
2022-09-05T01:40:29.521Z,2.50
2022-09-05T01:43:37.762Z,2.60
2022-09-05T01:46:19.870Z,2.83
2022-09-05T01:48:54.722Z,2.70
2022-09-05T01:51:34.287Z,3.10
2022-09-05T01:54:24.763Z,2.67
2022-09-05T01:57:03.485Z,2.55
2022-09-05T02:00:03.379Z,2.88
2022-09-05T02:02:50.478Z,2.90
2022-09-05T02:05:47.644Z,3.13
2022-09-05T02:08:23.934Z,2.72
2022-09-05T02:11:05.360Z,2.50
2022-09-05T02:13:34.476Z,2.80
2022-09-05T02:16:28.857Z,2.50
2022-09-05T02:19:03.839Z,2.60
2022-09-05T02:21:33.317Z,2.85
2022-09-05T02:24:34.846Z,3.15
2022-09-05T02:27:10.895Z,2.92
2022-09-05T02:30:09.229Z,3.10
2022-09-05T02:32:39.244Z,2.90
2022-09-05T02:35:09.350Z,2.60
2022-09-05T02:38:56.765Z,3.10
2022-09-05T02:45:16.768Z,3.03
2022-09-05T02:45:23.987Z,3.10
2022-09-05T02:47:06.017Z,3.07
2022-09-05T02:52:43.886Z,2.83
2022-09-05T02:57:24.469Z,3.42
2022-09-05T02:57:43.274Z,2.75
2022-09-05T02:59:09.952Z,3.33
2022-09-05T03:01:43.278Z,3.00
2022-09-05T03:04:33.934Z,3.40
2022-09-05T03:07:34.359Z,3.22
2022-09-05T03:10:36.968Z,3.30
2022-09-05T03:13:54.522Z,2.85
2022-09-05T03:16:50.688Z,3.13
2022-09-05T03:19:33.380Z,3.17
2022-09-05T03:22:23.034Z,3.20
2022-09-05T03:25:10.796Z,3.03
2022-09-05T03:27:46.471Z,3.60
2022-09-05T03:30:20.842Z,3.20
2022-09-05T03:33:03.396Z,3.00
2022-09-05T03:35:57.611Z,3.00
2022-09-05T03:38:30.103Z,3.27
2022-09-05T03:41:19.350Z,3.13
2022-09-05T03:44:27.931Z,3.10
2022-09-05T03:47:08.189Z,2.97
2022-09-05T03:52:56.372Z,3.27
2022-09-05T03:57:07.323Z,2.80
2022-09-05T03:57:22.672Z,2.93
2022-09-05T03:59:29.619Z,2.93
2022-09-05T04:03:01.259Z,2.80
2022-09-05T04:08:19.250Z,3.17
2022-09-05T04:08:24.899Z,2.60
2022-09-05T04:10:54.977Z,3.40
2022-09-05T04:13:28.055Z,2.80
2022-09-05T04:16:21.884Z,2.90
2022-09-05T04:18:54.791Z,3.10
2022-09-05T04:21:29.702Z,2.80
2022-09-05T04:24:07.682Z,2.97
2022-09-05T04:27:01.678Z,3.00
2022-09-05T04:29:56.754Z,2.90
2022-09-05T04:32:45.755Z,2.90
2022-09-05T04:35:22.652Z,2.70
2022-09-05T04:37:59.417Z,2.78
2022-09-05T04:40:39.814Z,3.30
2022-09-05T04:43:17.603Z,3.25
2022-09-05T04:45:53.296Z,2.80
2022-09-05T04:48:25.268Z,3.27
2022-09-05T04:51:02.320Z,3.40
2022-09-05T04:53:39.008Z,2.80
2022-09-05T04:56:11.655Z,3.22
2022-09-05T05:00:15.454Z,3.45
2022-09-05T05:06:08.719Z,3.80
2022-09-05T05:06:19.944Z,3.33
2022-09-05T05:07:48.041Z,3.43
2022-09-05T05:11:15.848Z,3.40
2022-09-05T05:17:58.283Z,3.57
2022-09-05T05:17:59.037Z,3.40
2022-09-05T05:19:31.505Z,3.50
2022-09-05T05:22:00.395Z,3.80
2022-09-05T05:24:29.566Z,3.03
2022-09-05T05:27:07.359Z,3.22
2022-09-05T05:29:53.607Z,3.03
2022-09-05T05:32:26.146Z,3.00
2022-09-05T05:35:12.890Z,3.63
2022-09-05T05:37:42.338Z,3.00
2022-09-05T05:40:17.894Z,2.95
2022-09-05T05:42:45.388Z,3.40
2022-09-05T05:45:26.574Z,3.63
2022-09-05T05:47:59.850Z,3.38
2022-09-05T05:50:36.220Z,3.40
2022-09-05T05:53:32.003Z,3.08
2022-09-05T05:56:19.745Z,3.58
2022-09-05T05:58:55.080Z,3.40
2022-09-05T06:01:49.902Z,3.17
2022-09-05T06:04:41.408Z,3.03
2022-09-05T06:11:16.008Z,3.05
2022-09-05T06:15:02.191Z,3.05
2022-09-05T06:15:06.733Z,3.83
2022-09-05T06:17:27.891Z,3.33
2022-09-05T06:22:03.977Z,3.90
2022-09-05T06:23:28.761Z,3.60
2022-09-05T06:26:15.635Z,3.47
2022-09-05T06:28:57.115Z,3.55
2022-09-05T06:31:37.481Z,3.65
2022-09-05T06:34:32.755Z,3.45
2022-09-05T06:37:10.507Z,3.78
2022-09-05T06:39:57.453Z,3.95
2022-09-05T06:42:42.469Z,3.45
2022-09-05T06:45:27.447Z,3.67
2022-09-05T06:48:27.763Z,3.22
2022-09-05T06:51:32.274Z,3.60
2022-09-05T06:54:07.630Z,3.25
2022-09-05T06:56:52.860Z,3.45
2022-09-05T06:59:30.014Z,3.40
2022-09-05T07:02:10.065Z,3.53
2022-09-05T07:05:37.323Z,3.35
2022-09-05T07:07:55.347Z,3.50
2022-09-05T07:10:38.780Z,3.20
2022-09-05T07:13:15.778Z,3.15
2022-09-05T07:16:00.898Z,3.67
2022-09-05T07:19:05.842Z,2.95
2022-09-05T07:21:44.426Z,2.83
2022-09-05T07:24:41.796Z,3.10
2022-09-05T07:27:09.031Z,3.03
2022-09-05T07:29:40.657Z,2.53
2022-09-05T07:32:24.250Z,2.70
2022-09-05T07:34:51.762Z,2.85
2022-09-05T07:37:23.446Z,3.05
2022-09-05T07:39:54.309Z,3.13
2022-09-05T07:42:33.349Z,2.90
2022-09-05T07:45:06.270Z,2.88
2022-09-05T07:47:35.465Z,2.72
2022-09-05T07:51:00.701Z,2.80
2022-09-05T07:56:52.642Z,3.15
2022-09-05T07:56:56.540Z,3.10
2022-09-05T07:58:41.972Z,2.80
2022-09-05T08:01:13.307Z,3.00
2022-09-05T08:03:42.203Z,3.00
2022-09-05T08:06:14.061Z,3.00
2022-09-05T08:09:21.537Z,2.72
2022-09-05T08:11:53.997Z,3.08
2022-09-05T08:14:45.823Z,2.72
2022-09-05T08:17:17.538Z,2.50
2022-09-05T08:19:57.477Z,2.50
2022-09-05T08:22:48.041Z,2.70
2022-09-05T08:25:25.540Z,2.65
2022-09-05T08:28:03.205Z,2.40
2022-09-05T08:30:37.478Z,2.45
2022-09-05T08:33:24.429Z,2.35
2022-09-05T08:36:01.008Z,2.53
2022-09-05T08:38:37.381Z,2.30
2022-09-05T08:41:26.000Z,2.38
2022-09-05T08:46:36.406Z,2.78
2022-09-05T08:47:45.222Z,2.65
2022-09-05T08:50:20.933Z,2.45
2022-09-05T08:53:45.808Z,2.65
2022-09-05T08:56:31.921Z,2.50
2022-09-05T08:59:27.769Z,2.90
2022-09-05T09:02:44.823Z,2.50
2022-09-05T09:05:14.238Z,2.53
2022-09-05T09:07:57.046Z,2.20
2022-09-05T09:10:41.585Z,2.35
2022-09-05T09:13:12.607Z,2.50
2022-09-05T09:15:50.790Z,2.25
2022-09-05T09:18:19.606Z,2.42
2022-09-05T09:20:54.496Z,1.85
2022-09-05T09:23:31.745Z,2.20
2022-09-05T09:26:11.112Z,2.00
2022-09-05T09:28:49.701Z,1.95
2022-09-05T09:31:57.847Z,2.03
2022-09-05T09:34:28.627Z,1.90
2022-09-05T09:37:08.414Z,1.92
2022-09-05T09:39:44.444Z,1.90
2022-09-05T09:42:33.416Z,1.92
2022-09-05T09:45:27.889Z,1.90
2022-09-05T09:48:02.102Z,1.80
2022-09-05T09:50:58.425Z,1.88
2022-09-05T09:53:37.463Z,1.70
2022-09-05T09:56:12.682Z,1.65
2022-09-05T09:58:48.046Z,1.60
2022-09-05T10:01:35.791Z,1.75
2022-09-05T10:10:35.468Z,1.90
2022-09-05T10:10:43.933Z,1.90
2022-09-05T10:11:40.169Z,1.70
2022-09-05T10:14:26.174Z,1.67
2022-09-05T10:17:20.749Z,1.80
2022-09-05T10:20:19.549Z,1.83
2022-09-05T10:23:18.027Z,1.90
2022-09-05T10:26:01.425Z,2.10
2022-09-05T10:28:50.418Z,1.98
2022-09-05T10:33:32.439Z,1.75
2022-09-05T10:35:14.310Z,1.80
2022-09-05T10:37:10.234Z,2.13
2022-09-05T10:39:39.837Z,2.00
2022-09-05T10:42:25.334Z,2.30
2022-09-05T10:44:56.384Z,2.08
2022-09-05T10:47:39.701Z,1.80
2022-09-05T10:50:24.847Z,1.83
2022-09-05T10:52:51.101Z,2.13
2022-09-05T10:55:27.426Z,2.05
2022-09-05T10:57:58.984Z,2.00
2022-09-05T11:02:29.927Z,1.90
2022-09-05T11:04:04.282Z,2.20
2022-09-05T11:07:06.086Z,1.98
2022-09-05T11:09:53.377Z,2.22
2022-09-05T11:12:52.455Z,2.20
2022-09-05T11:16:04.860Z,2.30
2022-09-05T11:18:56.150Z,2.20
2022-09-05T11:22:13.638Z,2.25
2022-09-05T11:24:44.729Z,2.15
2022-09-05T11:27:23.875Z,2.45
2022-09-05T11:29:55.810Z,2.20
2022-09-05T11:39:46.713Z,2.10
2022-09-05T11:40:06.815Z,2.15
2022-09-05T11:40:10.063Z,2.10
2022-09-05T11:42:31.849Z,2.05
2022-09-05T11:45:03.907Z,1.80
2022-09-05T11:47:51.670Z,2.30
2022-09-05T11:50:30.070Z,2.00
2022-09-05T11:53:09.819Z,2.00
2022-09-05T11:55:54.310Z,1.90
2022-09-05T11:58:47.165Z,1.90
2022-09-05T12:01:41.876Z,2.05
2022-09-05T12:04:24.433Z,1.98
2022-09-05T12:07:29.917Z,2.10
2022-09-05T12:10:46.284Z,1.83
2022-09-05T12:13:26.361Z,1.88
2022-09-05T12:18:51.350Z,2.03
2022-09-05T12:21:31.706Z,2.30
2022-09-05T12:25:16.627Z,2.47
2022-09-05T12:27:39.155Z,1.90
2022-09-05T12:36:02.038Z,2.08
2022-09-05T12:36:07.679Z,1.98
2022-09-05T12:41:35.912Z,1.90
2022-09-05T12:41:41.217Z,2.10
2022-09-05T12:42:09.708Z,2.08
2022-09-05T12:42:14.805Z,2.13
2022-09-05T12:44:50.481Z,1.85
2022-09-05T12:47:22.313Z,1.90
2022-09-05T12:50:03.412Z,2.00
2022-09-05T12:52:44.570Z,2.00
2022-09-05T12:55:19.304Z,1.80
2022-09-05T13:02:59.030Z,1.90
2022-09-05T13:03:05.218Z,2.00
2022-09-05T13:03:34.183Z,1.80
2022-09-05T13:06:10.399Z,1.77
2022-09-05T13:08:59.461Z,1.80
2022-09-05T13:14:49.704Z,1.98
2022-09-05T13:15:01.807Z,2.10
2022-09-05T13:17:08.341Z,2.00
2022-09-05T13:19:43.357Z,1.85
2022-09-05T13:22:11.107Z,2.30
2022-09-05T13:24:41.263Z,1.80
2022-09-05T13:27:29.089Z,1.95
2022-09-05T13:33:01.952Z,1.92
2022-09-05T13:38:02.437Z,1.90
2022-09-05T13:38:10.925Z,1.73
2022-09-05T13:39:04.104Z,2.17
2022-09-05T13:41:34.836Z,2.00
2022-09-05T13:44:27.601Z,2.08
2022-09-05T13:47:29.355Z,2.00
2022-09-05T13:50:08.633Z,1.85
2022-09-05T13:52:43.567Z,1.95
2022-09-05T13:55:19.987Z,2.08
2022-09-05T13:58:01.164Z,1.98
2022-09-05T14:00:54.833Z,1.85
2022-09-05T14:03:38.072Z,1.70
2022-09-05T14:06:47.503Z,1.77
2022-09-05T14:09:38.608Z,2.20
2022-09-05T14:12:15.085Z,2.22
2022-09-05T14:17:50.934Z,1.77
2022-09-05T14:20:36.383Z,1.75
2022-09-05T14:23:07.751Z,2.00
2022-09-05T14:25:38.915Z,1.80
2022-09-05T14:28:12.864Z,1.80
2022-09-05T14:33:13.834Z,1.80
2022-09-05T14:37:40.627Z,1.70
2022-09-05T14:38:01.472Z,1.80
2022-09-05T14:39:23.119Z,1.40
2022-09-05T14:42:15.307Z,1.70
2022-09-05T14:45:00.929Z,1.88
2022-09-05T14:47:48.546Z,1.88
2022-09-05T14:50:22.369Z,1.85
2022-09-05T14:57:57.513Z,1.90
2022-09-05T15:02:44.927Z,1.60
2022-09-05T15:03:00.592Z,1.70
2022-09-05T15:05:15.052Z,2.40
2022-09-05T15:07:49.504Z,1.52
2022-09-05T15:12:14.330Z,1.70
2022-09-05T15:13:17.743Z,1.60
2022-09-05T15:16:02.300Z,1.90
2022-09-05T15:18:35.221Z,1.83
2022-09-05T15:21:33.614Z,1.58
2022-09-05T15:24:04.119Z,1.60
2022-09-05T15:26:35.999Z,1.77
2022-09-05T15:29:13.049Z,1.80
2022-09-05T15:31:41.867Z,2.03
2022-09-05T15:34:34.380Z,1.73
2022-09-05T15:37:36.515Z,2.38
2022-09-05T15:40:23.792Z,2.00
2022-09-05T15:42:56.577Z,2.08
2022-09-05T15:45:32.922Z,2.00
2022-09-05T15:48:18.281Z,2.25
2022-09-05T15:50:50.093Z,1.83
2022-09-05T15:53:29.458Z,2.05
2022-09-05T15:56:15.914Z,1.90
2022-09-05T15:58:53.883Z,2.08
2022-09-05T16:01:48.503Z,2.20
2022-09-05T16:08:12.167Z,1.80
2022-09-05T16:10:40.811Z,1.92
2022-09-05T16:10:49.376Z,1.80
2022-09-05T16:12:46.010Z,1.90
2022-09-05T16:19:11.005Z,1.70
2022-09-05T16:23:32.027Z,1.80
2022-09-05T16:23:32.499Z,1.80
2022-09-05T16:24:06.143Z,1.85
2022-09-05T16:26:37.595Z,1.65
2022-09-05T16:29:23.915Z,1.67
2022-09-05T16:32:10.418Z,1.63
2022-09-05T16:34:55.209Z,1.88
2022-09-05T16:37:44.614Z,1.80
2022-09-05T16:40:29.556Z,2.13
2022-09-05T16:43:13.235Z,2.05
2022-09-05T16:46:10.689Z,2.38
2022-09-05T16:48:55.349Z,1.92
2022-09-05T16:51:39.782Z,2.00
2022-09-05T16:54:35.943Z,2.00
2022-09-05T16:57:09.361Z,2.10
2022-09-05T16:59:38.237Z,2.40
2022-09-05T17:02:16.646Z,2.35
2022-09-05T17:05:36.943Z,2.40
2022-09-05T17:08:18.107Z,2.50
2022-09-05T17:10:57.771Z,2.30
2022-09-05T17:13:37.710Z,2.05
2022-09-05T17:16:05.496Z,2.30
2022-09-05T17:18:36.343Z,2.05
2022-09-05T17:21:07.926Z,2.35
2022-09-05T17:28:43.083Z,2.10
2022-09-05T17:29:28.157Z,2.10
2022-09-05T17:32:32.618Z,2.08
2022-09-05T17:35:17.808Z,2.40
2022-09-05T17:38:12.104Z,1.98
2022-09-05T17:40:38.731Z,2.60
2022-09-05T17:43:28.426Z,2.38
2022-09-05T17:46:11.316Z,2.25
2022-09-05T17:48:50.826Z,2.58
2022-09-05T17:51:35.808Z,2.15
2022-09-05T17:54:07.864Z,2.88
2022-09-05T17:56:44.006Z,2.35
2022-09-05T17:59:13.054Z,2.40
2022-09-05T18:01:46.323Z,2.35
2022-09-05T18:04:48.629Z,2.30
2022-09-05T18:07:29.139Z,2.40
2022-09-05T18:13:31.229Z,3.00
2022-09-05T18:15:35.541Z,2.70
2022-09-05T18:18:08.492Z,3.25
2022-09-05T18:21:12.509Z,3.40
2022-09-05T18:26:41.052Z,3.60
2022-09-05T18:32:11.251Z,3.78
2022-09-05T18:34:37.595Z,3.50
2022-09-05T18:37:35.964Z,3.65
2022-09-05T18:40:10.414Z,3.40
2022-09-05T18:42:46.597Z,3.28
2022-09-05T18:45:16.248Z,3.22
2022-09-05T18:47:53.140Z,3.33
2022-09-05T18:50:28.285Z,3.92
2022-09-05T18:53:08.648Z,3.38
2022-09-05T18:56:10.010Z,3.80
2022-09-05T18:58:28.283Z,3.63
2022-09-05T19:00:55.301Z,3.65
2022-09-05T19:03:29.790Z,3.20
2022-09-05T19:06:35.142Z,3.40
2022-09-05T19:08:52.870Z,3.70
2022-09-05T19:11:32.364Z,3.10
2022-09-05T19:14:25.378Z,3.20
2022-09-05T19:17:00.263Z,3.53
2022-09-05T19:19:31.151Z,3.20
2022-09-05T19:22:39.450Z,2.85
2022-09-05T19:24:47.199Z,2.80
2022-09-05T19:29:10.482Z,2.60
2022-09-05T19:36:44.224Z,2.70
2022-09-05T19:36:55.079Z,2.45
2022-09-05T19:37:09.606Z,2.70
2022-09-05T19:38:26.456Z,2.60
2022-09-05T19:47:41.874Z,2.60
2022-09-05T19:47:44.909Z,2.58
2022-09-05T19:47:51.293Z,2.60
2022-09-05T19:50:01.047Z,2.55
2022-09-05T19:52:27.458Z,2.75
2022-09-05T19:54:55.703Z,2.53
2022-09-05T19:57:23.863Z,2.90
2022-09-05T19:59:55.107Z,2.90
2022-09-05T20:02:26.923Z,2.58
2022-09-05T20:04:58.321Z,2.60
2022-09-05T20:07:30.499Z,2.78
2022-09-05T20:09:58.857Z,2.90
2022-09-05T20:12:30.825Z,3.05
2022-09-05T20:14:58.400Z,2.55
2022-09-05T20:17:32.092Z,3.20
2022-09-05T20:20:08.768Z,2.55
2022-09-05T20:22:48.934Z,2.92
2022-09-05T20:25:35.066Z,2.70
2022-09-05T20:28:10.256Z,3.20
2022-09-05T20:30:40.784Z,3.03
2022-09-05T20:33:19.118Z,2.53
2022-09-05T20:39:41.066Z,2.58
2022-09-05T20:43:22.466Z,2.63
2022-09-05T20:43:31.115Z,2.70
2022-09-05T20:44:22.699Z,3.03
2022-09-05T20:54:04.258Z,2.60
2022-09-05T20:54:05.726Z,2.42
2022-09-05T20:54:13.818Z,2.60
2022-09-05T20:55:38.921Z,2.30
2022-09-05T20:58:11.557Z,2.28
2022-09-05T21:01:20.465Z,2.20
2022-09-05T21:03:31.668Z,2.60
2022-09-05T21:06:22.427Z,2.50
2022-09-05T21:08:50.341Z,2.63
2022-09-05T21:11:17.046Z,2.47
2022-09-05T21:13:52.519Z,2.72
2022-09-05T21:16:22.068Z,2.65
2022-09-05T21:18:50.555Z,2.67
2022-09-05T21:21:29.683Z,2.40
2022-09-05T21:24:18.101Z,2.88
2022-09-05T21:26:48.900Z,2.90
2022-09-05T21:29:17.391Z,2.78
2022-09-05T21:31:54.443Z,2.50
2022-09-05T21:34:24.423Z,2.50
2022-09-05T21:37:06.308Z,3.20
2022-09-05T21:39:39.961Z,2.70
2022-09-05T21:44:39.469Z,2.85
2022-09-05T21:47:41.846Z,2.70
2022-09-05T21:47:52.373Z,2.97
2022-09-05T21:50:30.702Z,2.65
2022-09-05T21:54:06.554Z,2.63
2022-09-05T21:59:20.807Z,2.67
2022-09-05T21:59:36.649Z,2.80
2022-09-05T22:01:51.742Z,2.67
2022-09-05T22:04:11.317Z,2.67
2022-09-05T22:06:37.679Z,3.17
2022-09-05T22:09:13.131Z,2.53
2022-09-05T22:11:39.834Z,2.65
2022-09-05T22:14:06.237Z,2.67
2022-09-05T22:16:33.179Z,2.53
2022-09-05T22:19:00.682Z,2.85
2022-09-05T22:21:33.211Z,2.80
2022-09-05T22:24:06.051Z,2.83
2022-09-05T22:27:10.753Z,2.67
2022-09-05T22:29:34.404Z,2.38
2022-09-05T22:32:00.787Z,2.83
2022-09-05T22:34:28.046Z,2.65
2022-09-05T22:36:55.980Z,2.47
2022-09-05T22:39:36.570Z,2.70
2022-09-05T22:42:10.263Z,2.30
2022-09-05T22:44:38.933Z,2.60
2022-09-05T22:47:06.614Z,2.50
2022-09-05T22:49:34.056Z,2.20
2022-09-05T22:52:00.493Z,2.60
2022-09-05T22:54:26.898Z,2.30
2022-09-05T22:56:53.254Z,2.80
2022-09-05T22:59:19.595Z,2.55
2022-09-05T23:01:45.985Z,2.50
2022-09-05T23:04:12.474Z,2.60
2022-09-05T23:06:38.871Z,2.55
2022-09-05T23:09:05.303Z,2.47
2022-09-05T23:11:31.685Z,2.50
2022-09-05T23:13:58.017Z,2.20
2022-09-05T23:16:24.383Z,2.42
2022-09-05T23:18:50.727Z,2.63
2022-09-05T23:21:17.176Z,2.42
2022-09-05T23:23:43.600Z,2.40
2022-09-05T23:26:11.731Z,2.33
2022-09-05T23:28:42.831Z,2.50
2022-09-05T23:31:10.675Z,2.40
2022-09-05T23:33:37.227Z,2.42
2022-09-05T23:36:06.105Z,2.67
2022-09-05T23:38:32.656Z,2.20
2022-09-05T23:41:04.584Z,2.28
2022-09-05T23:43:30.962Z,2.38
2022-09-05T23:45:57.644Z,2.40
2022-09-05T23:48:24.387Z,2.47
2022-09-05T23:50:50.962Z,2.45
2022-09-05T23:53:17.779Z,2.30
2022-09-05T23:55:44.121Z,2.63
2022-09-05T23:58:11.163Z,2.80
